sensor_id;sensor_type;location;lat;lon;timestamp;temperature;humidity
1337;DHT22;662;48.814;9.318;2023-02-28T00:00:17;2.20;46.30
1337;DHT22;662;48.814;9.318;2023-02-28T00:02:44;2.20;46.40
1337;DHT22;662;48.814;9.318;2023-02-28T00:05:13;2.20;46.40
1337;DHT22;662;48.814;9.318;2023-02-28T00:07:39;2.20;46.60
1337;DHT22;662;48.814;9.318;2023-02-28T00:10:07;2.20;46.60
1337;DHT22;662;48.814;9.318;2023-02-28T00:12:34;2.20;46.70
1337;DHT22;662;48.814;9.318;2023-02-28T00:15:00;2.10;46.60
1337;DHT22;662;48.814;9.318;2023-02-28T00:17:26;2.10;46.50
1337;DHT22;662;48.814;9.318;2023-02-28T00:19:52;2.10;46.50
1337;DHT22;662;48.814;9.318;2023-02-28T00:22:19;2.10;46.50
1337;DHT22;662;48.814;9.318;2023-02-28T00:24:45;2.00;46.60
1337;DHT22;662;48.814;9.318;2023-02-28T00:27:11;2.00;46.70
1337;DHT22;662;48.814;9.318;2023-02-28T00:29:37;2.00;46.70
1337;DHT22;662;48.814;9.318;2023-02-28T00:32:05;2.00;46.80
1337;DHT22;662;48.814;9.318;2023-02-28T00:34:31;2.00;46.90
1337;DHT22;662;48.814;9.318;2023-02-28T00:37:06;1.90;46.90
1337;DHT22;662;48.814;9.318;2023-02-28T00:39:34;1.90;47.00
1337;DHT22;662;48.814;9.318;2023-02-28T00:42:00;1.90;47.10
1337;DHT22;662;48.814;9.318;2023-02-28T00:44:26;1.90;47.30
1337;DHT22;662;48.814;9.318;2023-02-28T00:46:51;1.90;47.40
1337;DHT22;662;48.814;9.318;2023-02-28T00:49:19;1.80;47.90
1337;DHT22;662;48.814;9.318;2023-02-28T00:51:46;1.90;47.70
1337;DHT22;662;48.814;9.318;2023-02-28T00:54:12;1.90;47.80
1337;DHT22;662;48.814;9.318;2023-02-28T00:56:37;1.90;47.90
1337;DHT22;662;48.814;9.318;2023-02-28T00:59:03;1.90;47.80
1337;DHT22;662;48.814;9.318;2023-02-28T01:01:29;1.90;47.80
1337;DHT22;662;48.814;9.318;2023-02-28T01:03:54;1.90;47.90
1337;DHT22;662;48.814;9.318;2023-02-28T01:06:20;1.80;47.90
1337;DHT22;662;48.814;9.318;2023-02-28T01:08:45;1.80;48.00
1337;DHT22;662;48.814;9.318;2023-02-28T01:11:13;1.90;48.10
1337;DHT22;662;48.814;9.318;2023-02-28T01:13:41;1.80;48.10
1337;DHT22;662;48.814;9.318;2023-02-28T01:16:07;1.80;48.10
1337;DHT22;662;48.814;9.318;2023-02-28T01:18:33;1.80;48.30
1337;DHT22;662;48.814;9.318;2023-02-28T01:21:03;1.80;48.50
1337;DHT22;662;48.814;9.318;2023-02-28T01:23:29;1.80;48.50
1337;DHT22;662;48.814;9.318;2023-02-28T01:25:55;1.80;48.60
1337;DHT22;662;48.814;9.318;2023-02-28T01:28:21;1.80;48.60
1337;DHT22;662;48.814;9.318;2023-02-28T01:30:50;1.80;48.60
1337;DHT22;662;48.814;9.318;2023-02-28T01:33:16;1.80;48.60
1337;DHT22;662;48.814;9.318;2023-02-28T01:35:42;1.80;48.60
1337;DHT22;662;48.814;9.318;2023-02-28T01:38:07;1.80;48.60
1337;DHT22;662;48.814;9.318;2023-02-28T01:40:33;1.80;48.70
1337;DHT22;662;48.814;9.318;2023-02-28T01:42:59;1.80;48.70
1337;DHT22;662;48.814;9.318;2023-02-28T01:45:30;1.80;48.80
1337;DHT22;662;48.814;9.318;2023-02-28T01:48:00;1.80;48.90
1337;DHT22;662;48.814;9.318;2023-02-28T01:50:31;1.80;49.00
1337;DHT22;662;48.814;9.318;2023-02-28T01:53:02;1.80;49.10
1337;DHT22;662;48.814;9.318;2023-02-28T01:55:30;1.80;49.30
1337;DHT22;662;48.814;9.318;2023-02-28T01:57:58;1.70;49.30
1337;DHT22;662;48.814;9.318;2023-02-28T02:00:26;1.80;49.60
1337;DHT22;662;48.814;9.318;2023-02-28T02:02:57;1.70;49.60
1337;DHT22;662;48.814;9.318;2023-02-28T02:05:29;1.80;49.80
1337;DHT22;662;48.814;9.318;2023-02-28T02:08:00;1.80;49.80
1337;DHT22;662;48.814;9.318;2023-02-28T02:10:34;1.70;49.80
1337;DHT22;662;48.814;9.318;2023-02-28T02:18:46;1.70;50.00
1337;DHT22;662;48.814;9.318;2023-02-28T02:32:35;1.70;50.70
1337;DHT22;662;48.814;9.318;2023-02-28T02:35:24;1.70;50.70
1337;DHT22;662;48.814;9.318;2023-02-28T02:38:13;1.70;50.70
1337;DHT22;662;48.814;9.318;2023-02-28T02:40:51;1.70;50.70
1337;DHT22;662;48.814;9.318;2023-02-28T02:43:25;1.70;50.70
1337;DHT22;662;48.814;9.318;2023-02-28T02:45:55;1.70;50.80
1337;DHT22;662;48.814;9.318;2023-02-28T02:48:26;1.70;50.90
1337;DHT22;662;48.814;9.318;2023-02-28T02:50:56;1.60;50.90
1337;DHT22;662;48.814;9.318;2023-02-28T02:53:35;1.70;51.20
1337;DHT22;662;48.814;9.318;2023-02-28T02:56:03;1.60;51.30
1337;DHT22;662;48.814;9.318;2023-02-28T02:58:40;1.70;51.40
1337;DHT22;662;48.814;9.318;2023-02-28T03:01:14;1.70;51.50
1337;DHT22;662;48.814;9.318;2023-02-28T03:03:41;1.60;51.50
1337;DHT22;662;48.814;9.318;2023-02-28T03:06:07;1.70;51.60
1337;DHT22;662;48.814;9.318;2023-02-28T03:08:36;1.70;51.70
1337;DHT22;662;48.814;9.318;2023-02-28T03:11:13;1.70;51.80
1337;DHT22;662;48.814;9.318;2023-02-28T03:16:43;1.70;51.90
1337;DHT22;662;48.814;9.318;2023-02-28T03:22:12;1.70;52.10
1337;DHT22;662;48.814;9.318;2023-02-28T03:25:01;1.70;52.20
1337;DHT22;662;48.814;9.318;2023-02-28T03:27:52;1.70;52.40
1337;DHT22;662;48.814;9.318;2023-02-28T03:30:40;1.70;52.50
1337;DHT22;662;48.814;9.318;2023-02-28T03:35:37;1.70;52.70
1337;DHT22;662;48.814;9.318;2023-02-28T03:40:51;1.60;52.80
1337;DHT22;662;48.814;9.318;2023-02-28T03:43:28;1.60;52.90
1337;DHT22;662;48.814;9.318;2023-02-28T03:45:55;1.60;53.10
1337;DHT22;662;48.814;9.318;2023-02-28T03:48:28;1.60;53.10
1337;DHT22;662;48.814;9.318;2023-02-28T03:50:57;1.60;53.10
1337;DHT22;662;48.814;9.318;2023-02-28T03:53:29;1.60;53.30
1337;DHT22;662;48.814;9.318;2023-02-28T03:56:27;1.60;53.30
1337;DHT22;662;48.814;9.318;2023-02-28T04:01:45;1.60;53.40
1337;DHT22;662;48.814;9.318;2023-02-28T04:04:13;1.60;53.30
1337;DHT22;662;48.814;9.318;2023-02-28T04:06:40;1.60;53.40
1337;DHT22;662;48.814;9.318;2023-02-28T04:09:07;1.70;53.50
1337;DHT22;662;48.814;9.318;2023-02-28T04:11:37;1.70;53.50
1337;DHT22;662;48.814;9.318;2023-02-28T04:14:04;1.70;53.50
1337;DHT22;662;48.814;9.318;2023-02-28T04:16:31;1.70;53.50
1337;DHT22;662;48.814;9.318;2023-02-28T04:18:56;1.70;53.40
1337;DHT22;662;48.814;9.318;2023-02-28T04:23:58;1.60;53.50
1337;DHT22;662;48.814;9.318;2023-02-28T04:26:36;1.70;53.60
1337;DHT22;662;48.814;9.318;2023-02-28T04:29:04;1.70;53.60
1337;DHT22;662;48.814;9.318;2023-02-28T04:31:30;1.70;53.70
1337;DHT22;662;48.814;9.318;2023-02-28T04:33:56;1.70;53.80
1337;DHT22;662;48.814;9.318;2023-02-28T04:36:22;1.70;53.70
1337;DHT22;662;48.814;9.318;2023-02-28T04:38:49;1.70;53.80
1337;DHT22;662;48.814;9.318;2023-02-28T04:41:15;1.60;53.80
1337;DHT22;662;48.814;9.318;2023-02-28T04:43:42;1.60;53.90
1337;DHT22;662;48.814;9.318;2023-02-28T04:46:08;1.60;54.10
1337;DHT22;662;48.814;9.318;2023-02-28T04:48:36;1.60;54.10
1337;DHT22;662;48.814;9.318;2023-02-28T04:53:29;1.70;54.20
1337;DHT22;662;48.814;9.318;2023-02-28T04:55:55;1.70;54.30
1337;DHT22;662;48.814;9.318;2023-02-28T04:58:21;1.70;54.40
1337;DHT22;662;48.814;9.318;2023-02-28T05:00:51;1.70;54.40
1337;DHT22;662;48.814;9.318;2023-02-28T05:03:17;1.70;54.30
1337;DHT22;662;48.814;9.318;2023-02-28T05:05:42;1.70;54.20
1337;DHT22;662;48.814;9.318;2023-02-28T05:08:08;1.80;54.30
1337;DHT22;662;48.814;9.318;2023-02-28T05:10:35;1.70;54.30
1337;DHT22;662;48.814;9.318;2023-02-28T05:13:01;1.80;54.40
1337;DHT22;662;48.814;9.318;2023-02-28T05:15:27;1.70;54.50
1337;DHT22;662;48.814;9.318;2023-02-28T05:17:52;1.70;54.50
1337;DHT22;662;48.814;9.318;2023-02-28T05:20:18;1.70;54.60
1337;DHT22;662;48.814;9.318;2023-02-28T05:22:44;1.70;54.60
1337;DHT22;662;48.814;9.318;2023-02-28T05:25:19;1.70;54.60
1337;DHT22;662;48.814;9.318;2023-02-28T05:27:45;1.70;54.80
1337;DHT22;662;48.814;9.318;2023-02-28T05:30:11;1.70;54.70
1337;DHT22;662;48.814;9.318;2023-02-28T05:32:38;1.70;54.80
1337;DHT22;662;48.814;9.318;2023-02-28T05:35:04;1.70;54.80
1337;DHT22;662;48.814;9.318;2023-02-28T05:37:30;1.70;54.90
1337;DHT22;662;48.814;9.318;2023-02-28T05:39:55;1.70;54.80
1337;DHT22;662;48.814;9.318;2023-02-28T05:42:21;1.80;54.90
1337;DHT22;662;48.814;9.318;2023-02-28T05:44:46;1.80;54.90
1337;DHT22;662;48.814;9.318;2023-02-28T05:47:12;1.80;55.00
1337;DHT22;662;48.814;9.318;2023-02-28T05:49:41;1.70;54.90
1337;DHT22;662;48.814;9.318;2023-02-28T05:52:06;1.80;54.90
1337;DHT22;662;48.814;9.318;2023-02-28T05:54:32;1.80;54.90
1337;DHT22;662;48.814;9.318;2023-02-28T05:56:57;1.80;54.90
1337;DHT22;662;48.814;9.318;2023-02-28T05:59:23;1.80;54.80
1337;DHT22;662;48.814;9.318;2023-02-28T06:01:49;1.90;54.80
1337;DHT22;662;48.814;9.318;2023-02-28T06:04:17;1.90;54.80
1337;DHT22;662;48.814;9.318;2023-02-28T06:06:48;1.90;54.70
1337;DHT22;662;48.814;9.318;2023-02-28T06:09:15;2.00;54.70
1337;DHT22;662;48.814;9.318;2023-02-28T06:11:41;2.00;54.60
1337;DHT22;662;48.814;9.318;2023-02-28T06:14:09;2.00;54.50
1337;DHT22;662;48.814;9.318;2023-02-28T06:16:38;2.10;54.40
1337;DHT22;662;48.814;9.318;2023-02-28T06:19:04;2.10;54.40
1337;DHT22;662;48.814;9.318;2023-02-28T06:21:30;2.10;54.40
1337;DHT22;662;48.814;9.318;2023-02-28T06:23:57;2.10;54.30
1337;DHT22;662;48.814;9.318;2023-02-28T06:26:25;2.10;54.30
1337;DHT22;662;48.814;9.318;2023-02-28T06:28:51;2.10;54.20
1337;DHT22;662;48.814;9.318;2023-02-28T06:31:18;2.10;54.30
1337;DHT22;662;48.814;9.318;2023-02-28T06:33:44;2.10;54.20
1337;DHT22;662;48.814;9.318;2023-02-28T06:36:12;2.10;54.10
1337;DHT22;662;48.814;9.318;2023-02-28T06:38:38;2.20;54.10
1337;DHT22;662;48.814;9.318;2023-02-28T06:41:05;2.20;54.00
1337;DHT22;662;48.814;9.318;2023-02-28T06:43:35;2.20;53.90
1337;DHT22;662;48.814;9.318;2023-02-28T06:46:03;2.30;54.00
1337;DHT22;662;48.814;9.318;2023-02-28T06:48:28;2.30;53.90
1337;DHT22;662;48.814;9.318;2023-02-28T06:51:10;2.30;53.90
1337;DHT22;662;48.814;9.318;2023-02-28T06:53:36;2.30;53.70
1337;DHT22;662;48.814;9.318;2023-02-28T06:56:10;2.30;53.70
1337;DHT22;662;48.814;9.318;2023-02-28T06:58:37;2.40;53.70
1337;DHT22;662;48.814;9.318;2023-02-28T07:01:03;2.40;53.60
1337;DHT22;662;48.814;9.318;2023-02-28T07:03:29;2.40;53.60
1337;DHT22;662;48.814;9.318;2023-02-28T07:05:55;2.40;53.50
1337;DHT22;662;48.814;9.318;2023-02-28T07:08:23;2.40;53.40
1337;DHT22;662;48.814;9.318;2023-02-28T07:10:52;2.50;53.50
1337;DHT22;662;48.814;9.318;2023-02-28T07:13:17;2.50;53.40
1337;DHT22;662;48.814;9.318;2023-02-28T07:15:43;2.50;53.40
1337;DHT22;662;48.814;9.318;2023-02-28T07:18:08;2.50;53.30
1337;DHT22;662;48.814;9.318;2023-02-28T07:20:34;2.50;53.30
1337;DHT22;662;48.814;9.318;2023-02-28T07:23:00;2.60;53.80
1337;DHT22;662;48.814;9.318;2023-02-28T07:25:27;2.60;53.10
1337;DHT22;662;48.814;9.318;2023-02-28T07:27:54;2.60;53.00
1337;DHT22;662;48.814;9.318;2023-02-28T07:30:20;2.60;52.90
1337;DHT22;662;48.814;9.318;2023-02-28T07:32:46;2.70;52.90
1337;DHT22;662;48.814;9.318;2023-02-28T07:35:12;2.70;52.80
1337;DHT22;662;48.814;9.318;2023-02-28T07:37:38;2.70;52.60
1337;DHT22;662;48.814;9.318;2023-02-28T07:40:05;2.70;52.50
1337;DHT22;662;48.814;9.318;2023-02-28T07:42:34;2.70;52.50
1337;DHT22;662;48.814;9.318;2023-02-28T07:45:00;2.80;52.60
1337;DHT22;662;48.814;9.318;2023-02-28T07:47:26;2.80;52.50
1337;DHT22;662;48.814;9.318;2023-02-28T07:49:51;2.80;52.50
1337;DHT22;662;48.814;9.318;2023-02-28T07:52:17;2.80;52.40
1337;DHT22;662;48.814;9.318;2023-02-28T07:54:43;2.80;52.30
1337;DHT22;662;48.814;9.318;2023-02-28T07:57:08;2.80;52.40
1337;DHT22;662;48.814;9.318;2023-02-28T07:59:34;2.70;52.20
1337;DHT22;662;48.814;9.318;2023-02-28T08:01:59;2.80;52.30
1337;DHT22;662;48.814;9.318;2023-02-28T08:04:25;2.80;52.20
1337;DHT22;662;48.814;9.318;2023-02-28T08:06:51;2.80;52.10
1337;DHT22;662;48.814;9.318;2023-02-28T08:09:21;2.80;52.20
1337;DHT22;662;48.814;9.318;2023-02-28T08:11:47;2.80;52.70
1337;DHT22;662;48.814;9.318;2023-02-28T08:14:13;2.80;52.00
1337;DHT22;662;48.814;9.318;2023-02-28T08:16:39;2.90;52.00
1337;DHT22;662;48.814;9.318;2023-02-28T08:19:04;2.90;51.90
1337;DHT22;662;48.814;9.318;2023-02-28T08:21:30;3.00;51.90
1337;DHT22;662;48.814;9.318;2023-02-28T08:23:56;3.00;51.90
1337;DHT22;662;48.814;9.318;2023-02-28T08:26:22;3.00;51.80
1337;DHT22;662;48.814;9.318;2023-02-28T08:28:48;3.00;51.70
1337;DHT22;662;48.814;9.318;2023-02-28T08:31:16;3.10;51.60
1337;DHT22;662;48.814;9.318;2023-02-28T08:33:42;3.20;51.60
1337;DHT22;662;48.814;9.318;2023-02-28T08:36:10;3.10;51.40
1337;DHT22;662;48.814;9.318;2023-02-28T08:38:37;3.10;51.40
1337;DHT22;662;48.814;9.318;2023-02-28T08:41:07;3.20;51.40
1337;DHT22;662;48.814;9.318;2023-02-28T08:43:34;3.20;51.30
1337;DHT22;662;48.814;9.318;2023-02-28T08:46:00;3.20;51.80
1337;DHT22;662;48.814;9.318;2023-02-28T08:48:28;3.30;51.30
1337;DHT22;662;48.814;9.318;2023-02-28T08:50:59;3.40;51.30
1337;DHT22;662;48.814;9.318;2023-02-28T08:53:26;3.40;51.20
1337;DHT22;662;48.814;9.318;2023-02-28T08:56:02;3.50;51.60
1337;DHT22;662;48.814;9.318;2023-02-28T08:58:28;3.50;50.90
1337;DHT22;662;48.814;9.318;2023-02-28T09:00:53;3.50;50.70
1337;DHT22;662;48.814;9.318;2023-02-28T09:03:20;3.50;50.60
1337;DHT22;662;48.814;9.318;2023-02-28T09:08:18;3.60;50.50
1337;DHT22;662;48.814;9.318;2023-02-28T09:10:43;3.70;50.50
1337;DHT22;662;48.814;9.318;2023-02-28T09:13:09;3.70;50.30
1337;DHT22;662;48.814;9.318;2023-02-28T09:15:37;3.80;50.10
1337;DHT22;662;48.814;9.318;2023-02-28T09:18:03;3.80;50.10
1337;DHT22;662;48.814;9.318;2023-02-28T09:20:28;3.80;49.80
1337;DHT22;662;48.814;9.318;2023-02-28T09:22:54;3.80;49.80
1337;DHT22;662;48.814;9.318;2023-02-28T09:25:20;3.90;49.90
1337;DHT22;662;48.814;9.318;2023-02-28T09:27:45;3.90;49.80
1337;DHT22;662;48.814;9.318;2023-02-28T09:30:12;4.00;49.70
1337;DHT22;662;48.814;9.318;2023-02-28T09:32:37;4.10;49.80
1337;DHT22;662;48.814;9.318;2023-02-28T09:35:03;4.10;49.60
1337;DHT22;662;48.814;9.318;2023-02-28T09:37:29;4.10;49.30
1337;DHT22;662;48.814;9.318;2023-02-28T09:39:56;4.10;49.40
1337;DHT22;662;48.814;9.318;2023-02-28T09:42:27;4.20;49.40
1337;DHT22;662;48.814;9.318;2023-02-28T09:44:56;4.30;49.30
1337;DHT22;662;48.814;9.318;2023-02-28T09:47:38;4.30;49.20
1337;DHT22;662;48.814;9.318;2023-02-28T09:50:30;4.40;49.10
1337;DHT22;662;48.814;9.318;2023-02-28T09:52:58;4.50;49.00
1337;DHT22;662;48.814;9.318;2023-02-28T09:55:40;4.60;48.90
1337;DHT22;662;48.814;9.318;2023-02-28T09:58:37;4.60;48.70
1337;DHT22;662;48.814;9.318;2023-02-28T10:04:50;4.80;48.10
1337;DHT22;662;48.814;9.318;2023-02-28T10:07:22;4.80;47.80
1337;DHT22;662;48.814;9.318;2023-02-28T10:09:52;4.80;47.60
1337;DHT22;662;48.814;9.318;2023-02-28T10:12:21;4.90;47.60
1337;DHT22;662;48.814;9.318;2023-02-28T10:14:50;5.00;47.40
1337;DHT22;662;48.814;9.318;2023-02-28T10:17:23;5.20;47.70
1337;DHT22;662;48.814;9.318;2023-02-28T10:20:00;5.40;47.60
1337;DHT22;662;48.814;9.318;2023-02-28T10:25:22;5.60;46.70
1337;DHT22;662;48.814;9.318;2023-02-28T10:27:49;5.70;46.50
1337;DHT22;662;48.814;9.318;2023-02-28T10:30:15;5.60;46.00
1337;DHT22;662;48.814;9.318;2023-02-28T10:32:49;5.60;45.90
1337;DHT22;662;48.814;9.318;2023-02-28T10:35:17;5.70;46.10
1337;DHT22;662;48.814;9.318;2023-02-28T10:37:49;5.80;46.20
1337;DHT22;662;48.814;9.318;2023-02-28T10:45:24;6.30;45.70
1337;DHT22;662;48.814;9.318;2023-02-28T10:47:58;6.40;45.20
1337;DHT22;662;48.814;9.318;2023-02-28T11:04:02;6.30;44.30
1337;DHT22;662;48.814;9.318;2023-02-28T11:06:33;6.40;44.60
1337;DHT22;662;48.814;9.318;2023-02-28T11:09:01;6.40;44.70
1337;DHT22;662;48.814;9.318;2023-02-28T11:11:29;6.40;44.70
1337;DHT22;662;48.814;9.318;2023-02-28T11:14:03;6.30;44.60
1337;DHT22;662;48.814;9.318;2023-02-28T11:16:34;6.20;44.50
1337;DHT22;662;48.814;9.318;2023-02-28T11:19:04;6.10;44.60
1337;DHT22;662;48.814;9.318;2023-02-28T11:21:36;6.10;44.90
1337;DHT22;662;48.814;9.318;2023-02-28T11:24:20;6.10;45.10
1337;DHT22;662;48.814;9.318;2023-02-28T11:26:48;6.20;45.20
1337;DHT22;662;48.814;9.318;2023-02-28T11:29:31;6.40;45.70
1337;DHT22;662;48.814;9.318;2023-02-28T11:32:10;6.80;45.30
1337;DHT22;662;48.814;9.318;2023-02-28T11:34:37;7.50;45.00
1337;DHT22;662;48.814;9.318;2023-02-28T11:37:04;8.20;44.70
1337;DHT22;662;48.814;9.318;2023-02-28T11:39:32;8.90;43.20
1337;DHT22;662;48.814;9.318;2023-02-28T11:47:44;10.60;38.80
1337;DHT22;662;48.814;9.318;2023-02-28T11:52:55;11.50;37.20
1337;DHT22;662;48.814;9.318;2023-02-28T11:55:27;11.80;35.60
1337;DHT22;662;48.814;9.318;2023-02-28T11:58:23;12.10;35.30
1337;DHT22;662;48.814;9.318;2023-02-28T12:23:43;12.40;33.90
1337;DHT22;662;48.814;9.318;2023-02-28T12:29:12;12.80;32.90
1337;DHT22;662;48.814;9.318;2023-02-28T12:31:45;13.00;32.80
1337;DHT22;662;48.814;9.318;2023-02-28T12:34:19;13.20;32.80
1337;DHT22;662;48.814;9.318;2023-02-28T12:36:47;13.40;32.20
1337;DHT22;662;48.814;9.318;2023-02-28T12:39:31;13.60;32.10
1337;DHT22;662;48.814;9.318;2023-02-28T12:42:07;13.80;31.80
1337;DHT22;662;48.814;9.318;2023-02-28T12:44:39;14.10;31.70
1337;DHT22;662;48.814;9.318;2023-02-28T12:47:15;14.50;31.70
1337;DHT22;662;48.814;9.318;2023-02-28T12:50:01;14.90;31.30
1337;DHT22;662;48.814;9.318;2023-02-28T12:55:13;15.40;30.10
1337;DHT22;662;48.814;9.318;2023-02-28T12:58:08;15.30;29.60
1337;DHT22;662;48.814;9.318;2023-02-28T13:00:38;15.10;29.50
1337;DHT22;662;48.814;9.318;2023-02-28T13:19:31;14.60;30.70
1337;DHT22;662;48.814;9.318;2023-02-28T13:21:58;14.70;30.30
1337;DHT22;662;48.814;9.318;2023-02-28T13:24:48;14.60;29.90
1337;DHT22;662;48.814;9.318;2023-02-28T13:29:44;15.20;29.80
1337;DHT22;662;48.814;9.318;2023-02-28T13:39:57;15.40;29.40
1337;DHT22;662;48.814;9.318;2023-02-28T13:58:59;15.50;28.70
1337;DHT22;662;48.814;9.318;2023-02-28T14:01:56;15.60;28.90
1337;DHT22;662;48.814;9.318;2023-02-28T14:04:49;15.70;29.00
1337;DHT22;662;48.814;9.318;2023-02-28T14:07:32;15.80;28.80
1337;DHT22;662;48.814;9.318;2023-02-28T14:10:04;15.80;28.60
1337;DHT22;662;48.814;9.318;2023-02-28T14:18:13;15.70;28.60
1337;DHT22;662;48.814;9.318;2023-02-28T14:20:40;15.90;28.80
1337;DHT22;662;48.814;9.318;2023-02-28T14:23:42;16.00;28.60
1337;DHT22;662;48.814;9.318;2023-02-28T14:29:07;16.10;28.30
1337;DHT22;662;48.814;9.318;2023-02-28T14:31:45;16.10;28.50
1337;DHT22;662;48.814;9.318;2023-02-28T14:34:42;15.90;28.30
1337;DHT22;662;48.814;9.318;2023-02-28T14:37:15;15.70;28.20
1337;DHT22;662;48.814;9.318;2023-02-28T14:39:43;15.60;28.50
1337;DHT22;662;48.814;9.318;2023-02-28T14:44:56;15.40;29.00
1337;DHT22;662;48.814;9.318;2023-02-28T14:47:25;15.30;28.90
1337;DHT22;662;48.814;9.318;2023-02-28T14:49:52;15.20;29.10
1337;DHT22;662;48.814;9.318;2023-02-28T14:52:27;15.00;28.90
1337;DHT22;662;48.814;9.318;2023-02-28T14:54:59;14.60;29.40
1337;DHT22;662;48.814;9.318;2023-02-28T14:57:28;14.40;29.40
1337;DHT22;662;48.814;9.318;2023-02-28T15:02:34;13.80;30.00
1337;DHT22;662;48.814;9.318;2023-02-28T15:05:25;13.50;30.50
1337;DHT22;662;48.814;9.318;2023-02-28T15:08:19;13.10;31.00
1337;DHT22;662;48.814;9.318;2023-02-28T15:10:59;12.80;31.60
1337;DHT22;662;48.814;9.318;2023-02-28T15:13:45;12.50;32.00
1337;DHT22;662;48.814;9.318;2023-02-28T15:16:20;12.10;32.30
1337;DHT22;662;48.814;9.318;2023-02-28T15:18:59;11.80;32.80
1337;DHT22;662;48.814;9.318;2023-02-28T15:21:34;11.50;33.40
1337;DHT22;662;48.814;9.318;2023-02-28T15:24:15;11.10;33.80
1337;DHT22;662;48.814;9.318;2023-02-28T15:26:54;10.80;34.00
1337;DHT22;662;48.814;9.318;2023-02-28T15:29:23;10.50;34.40
1337;DHT22;662;48.814;9.318;2023-02-28T15:31:54;10.30;34.80
1337;DHT22;662;48.814;9.318;2023-02-28T15:34:25;10.10;35.20
1337;DHT22;662;48.814;9.318;2023-02-28T15:36:52;9.90;36.60
1337;DHT22;662;48.814;9.318;2023-02-28T15:39:23;9.60;37.00
1337;DHT22;662;48.814;9.318;2023-02-28T15:41:49;9.50;37.50
1337;DHT22;662;48.814;9.318;2023-02-28T15:49:25;9.10;38.20
1337;DHT22;662;48.814;9.318;2023-02-28T15:51:53;9.00;38.70
1337;DHT22;662;48.814;9.318;2023-02-28T15:54:29;8.90;38.80
1337;DHT22;662;48.814;9.318;2023-02-28T15:56:57;8.80;39.10
1337;DHT22;662;48.814;9.318;2023-02-28T15:59:26;8.70;39.30
1337;DHT22;662;48.814;9.318;2023-02-28T16:04:35;8.50;39.70
1337;DHT22;662;48.814;9.318;2023-02-28T16:07:05;8.40;40.00
1337;DHT22;662;48.814;9.318;2023-02-28T16:09:31;8.30;40.10
1337;DHT22;662;48.814;9.318;2023-02-28T16:12:01;8.20;40.30
1337;DHT22;662;48.814;9.318;2023-02-28T16:14:28;8.20;40.60
1337;DHT22;662;48.814;9.318;2023-02-28T16:17:07;8.10;40.80
1337;DHT22;662;48.814;9.318;2023-02-28T16:19:35;8.00;41.40
1337;DHT22;662;48.814;9.318;2023-02-28T16:22:01;7.90;41.00
1337;DHT22;662;48.814;9.318;2023-02-28T16:24:27;7.90;41.10
1337;DHT22;662;48.814;9.318;2023-02-28T16:26:55;7.80;41.10
1337;DHT22;662;48.814;9.318;2023-02-28T16:29:31;7.80;41.40
1337;DHT22;662;48.814;9.318;2023-02-28T16:31:57;7.70;41.30
1337;DHT22;662;48.814;9.318;2023-02-28T16:34:24;7.60;41.40
1337;DHT22;662;48.814;9.318;2023-02-28T16:36:50;7.60;41.60
1337;DHT22;662;48.814;9.318;2023-02-28T16:39:16;7.50;41.60
1337;DHT22;662;48.814;9.318;2023-02-28T16:41:43;7.50;41.80
1337;DHT22;662;48.814;9.318;2023-02-28T16:44:14;7.50;42.00
1337;DHT22;662;48.814;9.318;2023-02-28T16:46:46;7.40;42.20
1337;DHT22;662;48.814;9.318;2023-02-28T16:49:12;7.40;42.30
1337;DHT22;662;48.814;9.318;2023-02-28T16:51:38;7.30;42.30
1337;DHT22;662;48.814;9.318;2023-02-28T16:54:04;7.30;42.30
1337;DHT22;662;48.814;9.318;2023-02-28T16:56:30;7.20;42.50
1337;DHT22;662;48.814;9.318;2023-02-28T16:59:00;7.20;42.60
1337;DHT22;662;48.814;9.318;2023-02-28T17:01:26;7.20;42.70
1337;DHT22;662;48.814;9.318;2023-02-28T17:03:53;7.20;42.90
1337;DHT22;662;48.814;9.318;2023-02-28T17:06:27;7.10;42.90
1337;DHT22;662;48.814;9.318;2023-02-28T17:08:57;7.10;43.10
1337;DHT22;662;48.814;9.318;2023-02-28T17:11:24;7.10;43.10
1337;DHT22;662;48.814;9.318;2023-02-28T17:13:50;7.00;43.20
1337;DHT22;662;48.814;9.318;2023-02-28T17:16:25;7.00;43.20
1337;DHT22;662;48.814;9.318;2023-02-28T17:18:53;6.90;43.10
1337;DHT22;662;48.814;9.318;2023-02-28T17:21:19;6.90;43.40
1337;DHT22;662;48.814;9.318;2023-02-28T17:23:45;6.80;43.30
1337;DHT22;662;48.814;9.318;2023-02-28T17:26:16;6.80;43.50
1337;DHT22;662;48.814;9.318;2023-02-28T17:28:43;6.80;43.70
1337;DHT22;662;48.814;9.318;2023-02-28T17:31:09;6.70;43.80
1337;DHT22;662;48.814;9.318;2023-02-28T17:33:35;6.70;44.00
1337;DHT22;662;48.814;9.318;2023-02-28T17:36:01;6.70;44.00
1337;DHT22;662;48.814;9.318;2023-02-28T17:38:27;6.60;43.90
1337;DHT22;662;48.814;9.318;2023-02-28T17:40:52;6.60;44.00
1337;DHT22;662;48.814;9.318;2023-02-28T17:43:23;6.60;44.20
1337;DHT22;662;48.814;9.318;2023-02-28T17:45:49;6.50;44.20
1337;DHT22;662;48.814;9.318;2023-02-28T17:48:14;6.50;44.20
1337;DHT22;662;48.814;9.318;2023-02-28T17:50:40;6.50;44.40
1337;DHT22;662;48.814;9.318;2023-02-28T17:53:06;6.50;44.50
1337;DHT22;662;48.814;9.318;2023-02-28T17:55:32;6.40;44.50
1337;DHT22;662;48.814;9.318;2023-02-28T17:58:00;6.40;44.70
1337;DHT22;662;48.814;9.318;2023-02-28T18:00:25;6.40;44.80
1337;DHT22;662;48.814;9.318;2023-02-28T18:02:51;6.30;44.80
1337;DHT22;662;48.814;9.318;2023-02-28T18:05:17;6.30;44.80
1337;DHT22;662;48.814;9.318;2023-02-28T18:07:43;6.20;44.80
1337;DHT22;662;48.814;9.318;2023-02-28T18:10:14;6.20;44.80
1337;DHT22;662;48.814;9.318;2023-02-28T18:12:40;6.20;45.00
1337;DHT22;662;48.814;9.318;2023-02-28T18:15:06;6.10;45.50
1337;DHT22;662;48.814;9.318;2023-02-28T18:17:32;6.10;45.10
1337;DHT22;662;48.814;9.318;2023-02-28T18:19:58;6.10;45.20
1337;DHT22;662;48.814;9.318;2023-02-28T18:22:24;6.10;45.20
1337;DHT22;662;48.814;9.318;2023-02-28T18:24:50;6.10;45.20
1337;DHT22;662;48.814;9.318;2023-02-28T18:27:16;6.00;45.20
1337;DHT22;662;48.814;9.318;2023-02-28T18:29:41;6.00;45.30
1337;DHT22;662;48.814;9.318;2023-02-28T18:32:07;6.00;45.40
1337;DHT22;662;48.814;9.318;2023-02-28T18:34:35;6.00;45.50
1337;DHT22;662;48.814;9.318;2023-02-28T18:37:03;6.00;45.60
1337;DHT22;662;48.814;9.318;2023-02-28T18:39:29;5.90;45.50
1337;DHT22;662;48.814;9.318;2023-02-28T18:41:55;5.90;45.50
1337;DHT22;662;48.814;9.318;2023-02-28T18:44:21;5.90;45.60
1337;DHT22;662;48.814;9.318;2023-02-28T18:46:48;5.90;45.70
1337;DHT22;662;48.814;9.318;2023-02-28T18:49:14;5.80;45.70
1337;DHT22;662;48.814;9.318;2023-02-28T18:51:40;5.80;45.80
1337;DHT22;662;48.814;9.318;2023-02-28T18:54:10;5.80;45.80
1337;DHT22;662;48.814;9.318;2023-02-28T18:56:36;5.80;45.90
1337;DHT22;662;48.814;9.318;2023-02-28T18:59:02;5.70;45.90
1337;DHT22;662;48.814;9.318;2023-02-28T19:01:29;5.70;46.00
1337;DHT22;662;48.814;9.318;2023-02-28T19:03:58;5.70;46.10
1337;DHT22;662;48.814;9.318;2023-02-28T19:06:28;5.60;46.10
1337;DHT22;662;48.814;9.318;2023-02-28T19:08:55;5.60;46.20
1337;DHT22;662;48.814;9.318;2023-02-28T19:11:22;5.60;46.30
1337;DHT22;662;48.814;9.318;2023-02-28T19:13:48;5.60;46.30
1337;DHT22;662;48.814;9.318;2023-02-28T19:16:16;5.50;46.30
1337;DHT22;662;48.814;9.318;2023-02-28T19:18:42;5.60;46.40
1337;DHT22;662;48.814;9.318;2023-02-28T19:21:09;5.50;46.40
1337;DHT22;662;48.814;9.318;2023-02-28T19:23:37;5.50;46.50
1337;DHT22;662;48.814;9.318;2023-02-28T19:26:07;5.40;46.50
1337;DHT22;662;48.814;9.318;2023-02-28T19:28:33;5.40;46.60
1337;DHT22;662;48.814;9.318;2023-02-28T19:30:59;5.40;46.60